createdAt,value
2022-10-17T00:00:08.213Z,2.33
2022-10-17T00:03:50.078Z,2.78
2022-10-17T00:07:31.959Z,2.03
2022-10-17T00:11:23.652Z,1.65
2022-10-17T00:15:07.743Z,1.80
2022-10-17T00:18:49.844Z,2.40
2022-10-17T00:22:31.880Z,2.20
2022-10-17T00:26:14.466Z,2.47
2022-10-17T00:29:56.301Z,2.15
2022-10-17T00:33:39.307Z,1.80
2022-10-17T00:37:21.207Z,3.00
2022-10-17T00:41:04.542Z,1.92
2022-10-17T00:44:47.684Z,2.13
2022-10-17T00:48:29.712Z,2.95
2022-10-17T00:52:26.374Z,2.42
2022-10-17T00:56:09.004Z,2.03
2022-10-17T00:59:55.312Z,2.55
2022-10-17T01:03:37.158Z,2.15
2022-10-17T01:07:19.149Z,2.78
2022-10-17T01:11:06.780Z,2.42
2022-10-17T01:14:57.754Z,2.50
2022-10-17T01:18:51.785Z,2.53
2022-10-17T01:22:47.552Z,2.08
2022-10-17T01:26:48.094Z,3.08
2022-10-17T01:30:48.735Z,3.35
2022-10-17T01:34:41.481Z,3.22
2022-10-17T01:38:48.697Z,2.70
2022-10-17T01:42:36.929Z,2.90
2022-10-17T01:46:34.771Z,2.35
2022-10-17T01:50:39.319Z,2.88
2022-10-17T01:54:44.563Z,3.28
2022-10-17T01:58:34.151Z,2.90
2022-10-17T02:02:19.148Z,3.38
2022-10-17T02:06:01.548Z,3.08
2022-10-17T02:09:44.025Z,2.80
2022-10-17T02:13:44.505Z,2.38
2022-10-17T02:17:29.573Z,2.90
2022-10-17T02:21:27.237Z,2.97
2022-10-17T02:25:15.273Z,2.75
2022-10-17T02:29:07.559Z,3.15
2022-10-17T02:33:02.103Z,2.75
2022-10-17T02:36:49.914Z,3.55
2022-10-17T02:40:32.312Z,2.97
2022-10-17T02:44:14.848Z,3.45
2022-10-17T02:48:08.369Z,3.70
2022-10-17T02:52:03.290Z,3.90
2022-10-17T02:55:53.899Z,3.85
2022-10-17T02:59:37.142Z,3.33
2022-10-17T03:03:26.100Z,3.58
2022-10-17T03:07:08.019Z,3.38
2022-10-17T03:10:50.088Z,3.92
2022-10-17T03:14:32.065Z,3.75
2022-10-17T03:18:14.009Z,3.67
2022-10-17T03:21:56.541Z,2.95
2022-10-17T03:25:38.598Z,3.13
2022-10-17T03:29:20.443Z,2.83
2022-10-17T03:33:02.267Z,3.17
2022-10-17T03:36:44.472Z,3.28
2022-10-17T03:40:26.332Z,2.97
2022-10-17T03:44:08.213Z,3.13
2022-10-17T03:47:50.230Z,3.07
2022-10-17T03:51:35.095Z,3.03
2022-10-17T03:55:17.540Z,3.67
2022-10-17T03:58:59.447Z,3.75
2022-10-17T04:02:41.806Z,3.10
2022-10-17T04:06:24.010Z,2.65
2022-10-17T04:10:06.531Z,3.60
2022-10-17T04:13:52.448Z,3.75
2022-10-17T04:17:37.327Z,3.38
2022-10-17T04:21:20.312Z,3.20
2022-10-17T04:25:02.261Z,3.83
2022-10-17T04:28:44.125Z,3.83
2022-10-17T04:32:26.374Z,3.58
2022-10-17T04:36:12.150Z,3.55
2022-10-17T04:39:54.035Z,3.72
2022-10-17T04:43:38.138Z,3.58
2022-10-17T04:47:19.981Z,3.72
2022-10-17T04:51:04.835Z,4.20
2022-10-17T04:54:46.772Z,3.63
2022-10-17T04:58:30.325Z,3.63
2022-10-17T05:02:12.513Z,3.35
2022-10-17T05:05:54.380Z,4.53
2022-10-17T05:09:36.219Z,3.63
2022-10-17T05:13:18.057Z,3.33
2022-10-17T05:17:00.095Z,3.73
2022-10-17T05:20:41.992Z,2.92
2022-10-17T05:24:23.898Z,3.25
2022-10-17T05:28:06.095Z,3.67
2022-10-17T05:31:47.975Z,38.73
2022-10-17T05:35:29.894Z,5.00
2022-10-17T05:39:14.898Z,4.67
2022-10-17T05:42:56.725Z,4.17
2022-10-17T05:46:38.614Z,3.43
2022-10-17T05:50:22.140Z,4.53
2022-10-17T05:54:06.804Z,3.03
2022-10-17T05:57:49.610Z,3.90
2022-10-17T06:01:31.535Z,3.77
2022-10-17T06:05:14.457Z,3.97
2022-10-17T06:08:56.367Z,3.27
2022-10-17T06:12:38.670Z,3.60
2022-10-17T06:16:21.663Z,4.43
2022-10-17T06:20:04.187Z,3.90
2022-10-17T06:23:46.140Z,3.60
2022-10-17T06:27:28.054Z,4.13
2022-10-17T06:31:14.027Z,3.63
2022-10-17T06:34:55.792Z,4.78
2022-10-17T06:38:37.709Z,5.10
2022-10-17T06:42:19.785Z,5.67
2022-10-17T06:46:01.705Z,5.37
2022-10-17T06:49:43.625Z,5.07
2022-10-17T06:53:29.982Z,3.87
2022-10-17T06:57:12.568Z,4.70
2022-10-17T07:01:00.979Z,5.57
2022-10-17T07:04:47.258Z,5.73
2022-10-17T07:08:29.227Z,4.13
2022-10-17T07:12:13.449Z,4.17
2022-10-17T07:16:00.339Z,4.80
2022-10-17T07:19:43.532Z,4.10
2022-10-17T07:23:25.618Z,4.10
2022-10-17T07:27:07.676Z,5.00
2022-10-17T07:30:53.646Z,4.73
2022-10-17T07:34:36.587Z,4.43
2022-10-17T07:38:18.460Z,3.83
2022-10-17T07:42:00.278Z,5.00
2022-10-17T07:45:42.241Z,3.77
2022-10-17T07:49:24.194Z,4.03
2022-10-17T07:53:06.096Z,3.20
2022-10-17T07:56:50.777Z,3.92
2022-10-17T08:00:33.206Z,3.83
2022-10-17T08:07:58.089Z,3.35
2022-10-17T08:11:40.341Z,3.65
2022-10-17T08:15:26.753Z,4.88
2022-10-17T08:19:11.671Z,3.67
2022-10-17T08:22:55.006Z,3.38
2022-10-17T08:26:40.649Z,3.65
2022-10-17T08:30:25.776Z,4.18
2022-10-17T08:34:07.896Z,4.35
2022-10-17T08:37:50.199Z,4.03
2022-10-17T08:42:06.088Z,3.75
2022-10-17T08:45:56.503Z,4.00
2022-10-17T08:49:41.312Z,3.30
2022-10-17T08:53:50.855Z,2.90
2022-10-17T08:57:33.089Z,3.00
2022-10-17T09:01:36.975Z,2.90
2022-10-17T09:05:41.589Z,4.03
2022-10-17T09:09:51.268Z,3.45
2022-10-17T09:13:48.377Z,2.60
2022-10-17T09:17:53.402Z,3.00
2022-10-17T09:21:59.631Z,3.83
2022-10-17T09:25:58.311Z,2.90
2022-10-17T09:29:43.810Z,2.30
2022-10-17T09:33:55.097Z,2.80
2022-10-17T09:37:38.733Z,2.58
2022-10-17T09:41:46.872Z,3.20
2022-10-17T09:45:54.847Z,2.40
2022-10-17T09:49:40.540Z,2.85
2022-10-17T09:53:38.397Z,2.75
2022-10-17T09:57:23.691Z,2.28
2022-10-17T10:01:24.854Z,2.45
2022-10-17T10:05:23.910Z,2.35
2022-10-17T10:09:25.965Z,2.28
2022-10-17T10:13:24.200Z,2.40
2022-10-17T10:17:42.390Z,2.50
2022-10-17T10:21:28.412Z,2.70
2022-10-17T10:25:16.082Z,2.60
2022-10-17T10:29:06.280Z,3.35
2022-10-17T10:32:55.651Z,2.08
2022-10-17T10:37:02.394Z,2.47
2022-10-17T10:41:07.279Z,3.17
2022-10-17T10:44:51.598Z,2.55
2022-10-17T10:48:37.412Z,2.67
2022-10-17T10:57:21.187Z,2.50
2022-10-17T11:01:22.956Z,1.98
2022-10-17T11:05:12.354Z,2.17
2022-10-17T11:09:31.329Z,2.53
2022-10-17T11:13:15.045Z,2.20
2022-10-17T11:17:33.331Z,2.50
2022-10-17T11:21:34.383Z,2.92
2022-10-17T11:25:31.346Z,1.65
2022-10-17T11:29:18.536Z,1.75
2022-10-17T11:33:12.867Z,1.88
2022-10-17T11:37:05.644Z,1.80
2022-10-17T11:40:51.724Z,2.22
2022-10-17T11:44:40.938Z,2.20
2022-10-17T11:48:29.378Z,2.25
2022-10-17T11:57:06.362Z,1.88
2022-10-17T12:01:16.608Z,1.73
2022-10-17T12:09:46.289Z,2.15
2022-10-17T12:13:28.579Z,2.05
2022-10-17T12:17:36.024Z,2.13
2022-10-17T12:21:17.891Z,1.88
2022-10-17T12:25:05.370Z,2.50
2022-10-17T12:28:49.569Z,1.73
2022-10-17T12:32:46.853Z,2.17
2022-10-17T12:36:33.738Z,2.40
2022-10-17T12:40:37.669Z,2.38
2022-10-17T12:44:21.846Z,1.80
2022-10-17T12:48:11.495Z,2.60
2022-10-17T12:52:18.242Z,2.40
2022-10-17T12:56:01.173Z,1.73
2022-10-17T12:59:45.254Z,2.35
2022-10-17T13:03:34.288Z,2.53
2022-10-17T13:07:22.556Z,2.97
2022-10-17T13:11:05.706Z,2.20
2022-10-17T13:14:50.440Z,2.20
2022-10-17T13:18:33.047Z,2.70
2022-10-17T13:22:22.147Z,2.40
2022-10-17T13:26:23.589Z,2.40
2022-10-17T13:30:38.599Z,2.85
2022-10-17T13:34:26.464Z,2.55
2022-10-17T13:38:11.470Z,2.15
2022-10-17T13:41:55.838Z,3.08
2022-10-17T13:45:38.838Z,1.90
2022-10-17T13:49:42.570Z,3.22
2022-10-17T13:53:35.412Z,2.88
2022-10-17T13:57:29.395Z,2.85
2022-10-17T14:01:15.216Z,2.85
2022-10-17T14:09:21.369Z,2.17
2022-10-17T14:13:05.569Z,3.85
2022-10-17T14:16:58.348Z,3.28
2022-10-17T14:24:50.796Z,2.53
2022-10-17T14:28:32.688Z,2.30
2022-10-17T14:32:16.015Z,2.72
2022-10-17T14:36:00.648Z,2.17
2022-10-17T14:39:43.747Z,2.67
2022-10-17T14:43:28.594Z,2.80
2022-10-17T14:47:42.094Z,2.33
2022-10-17T14:51:21.338Z,2.63
2022-10-17T14:55:24.244Z,2.63
2022-10-17T14:59:11.117Z,2.90
2022-10-17T15:02:56.424Z,2.15
2022-10-17T15:06:42.229Z,2.83
2022-10-17T15:14:08.912Z,2.42
2022-10-17T15:17:50.860Z,3.15
2022-10-17T15:21:39.489Z,2.08
2022-10-17T15:25:26.168Z,2.70
2022-10-17T15:29:17.403Z,2.45
2022-10-17T15:32:59.955Z,3.92
2022-10-17T15:36:48.514Z,3.33
2022-10-17T15:40:31.099Z,2.90
2022-10-17T15:44:12.954Z,2.00
2022-10-17T15:47:59.940Z,2.42
2022-10-17T15:51:42.036Z,2.58
2022-10-17T15:55:24.062Z,2.50
2022-10-17T15:59:15.570Z,3.50
2022-10-17T16:02:57.443Z,2.10
2022-10-17T16:06:39.635Z,3.88
2022-10-17T16:10:22.852Z,2.58
2022-10-17T16:14:06.964Z,2.20
2022-10-17T16:17:49.822Z,2.97
2022-10-17T16:21:34.788Z,3.65
2022-10-17T16:25:23.165Z,4.73
2022-10-17T16:29:05.278Z,3.47
2022-10-17T16:32:47.741Z,2.97
2022-10-17T16:36:30.208Z,2.78
2022-10-17T16:40:12.287Z,2.90
2022-10-17T16:43:56.461Z,3.70
2022-10-17T16:47:38.300Z,4.70
2022-10-17T16:51:21.048Z,4.13
2022-10-17T16:55:03.087Z,3.65
2022-10-17T16:58:45.704Z,3.03
2022-10-17T17:02:27.636Z,3.17
2022-10-17T17:06:13.277Z,3.13
2022-10-17T17:09:56.326Z,3.83
2022-10-17T17:13:38.918Z,6.18
2022-10-17T17:17:37.033Z,5.28
2022-10-17T17:21:23.242Z,4.43
2022-10-17T17:25:05.440Z,5.35
2022-10-17T17:28:47.972Z,8.38
2022-10-17T17:32:29.952Z,3.45
2022-10-17T17:36:15.311Z,5.75
2022-10-17T17:39:57.231Z,8.52
2022-10-17T17:43:39.622Z,6.03
2022-10-17T17:47:21.451Z,6.90
2022-10-17T17:51:04.926Z,7.75
2022-10-17T17:54:46.801Z,7.13
2022-10-17T17:58:28.819Z,6.22
2022-10-17T18:02:11.408Z,4.20
2022-10-17T18:05:53.986Z,5.00
2022-10-17T18:09:35.849Z,6.75
2022-10-17T18:13:17.901Z,7.05
2022-10-17T18:16:59.791Z,5.90
2022-10-17T18:20:42.889Z,6.43
2022-10-17T18:24:24.960Z,5.23
2022-10-17T18:28:08.447Z,7.63
2022-10-17T18:31:50.315Z,17.57
2022-10-17T18:35:32.325Z,18.53
2022-10-17T18:39:14.140Z,21.63
2022-10-17T18:42:56.157Z,13.10
2022-10-17T18:46:41.800Z,7.03
2022-10-17T18:50:25.029Z,6.65
2022-10-17T18:54:12.305Z,8.30
2022-10-17T18:57:54.191Z,8.43
2022-10-17T19:01:36.528Z,8.43
2022-10-17T19:05:18.572Z,8.07
2022-10-17T19:09:01.989Z,12.47
2022-10-17T19:12:43.855Z,7.63
2022-10-17T19:16:28.568Z,8.50
2022-10-17T19:20:10.772Z,7.90
2022-10-17T19:23:55.513Z,9.07
2022-10-17T19:27:37.432Z,9.83
2022-10-17T19:31:26.830Z,11.17
2022-10-17T19:35:11.816Z,14.77
2022-10-17T19:38:54.640Z,11.47
2022-10-17T19:42:36.540Z,8.57
2022-10-17T19:46:22.145Z,12.53
2022-10-17T19:50:04.871Z,12.55
2022-10-17T19:53:47.430Z,13.73
2022-10-17T19:57:29.376Z,13.67
2022-10-17T20:01:13.274Z,10.47
2022-10-17T20:05:17.077Z,15.07
2022-10-17T20:08:57.054Z,11.27
2022-10-17T20:12:38.943Z,8.47
2022-10-17T20:16:23.785Z,9.33
2022-10-17T20:20:08.738Z,7.23
2022-10-17T20:23:51.617Z,5.53
2022-10-17T20:27:33.657Z,5.07
2022-10-17T20:31:15.884Z,4.70
2022-10-17T20:34:58.341Z,4.40
2022-10-17T20:38:40.681Z,4.70
2022-10-17T20:42:22.695Z,4.27
2022-10-17T20:46:22.842Z,8.30
2022-10-17T20:50:05.852Z,5.53
2022-10-17T20:53:48.821Z,5.47
2022-10-17T20:57:31.092Z,4.90
2022-10-17T21:01:13.507Z,5.83
2022-10-17T21:04:55.448Z,5.50
2022-10-17T21:08:37.892Z,9.60
2022-10-17T21:12:30.903Z,18.37
2022-10-17T21:16:19.575Z,17.53
2022-10-17T21:20:01.465Z,14.73
2022-10-17T21:23:46.413Z,4.77
2022-10-17T21:27:28.434Z,5.03
2022-10-17T21:31:18.334Z,5.57
2022-10-17T21:35:00.238Z,4.40
2022-10-17T21:38:42.655Z,8.43
2022-10-17T21:42:24.771Z,7.67
2022-10-17T21:46:18.658Z,6.40
2022-10-17T21:50:00.561Z,5.33
2022-10-17T21:53:43.417Z,2.97
2022-10-17T21:57:25.362Z,3.53
2022-10-17T22:01:15.637Z,17.97
2022-10-17T22:04:57.520Z,4.87
2022-10-17T22:08:40.213Z,4.20
2022-10-17T22:12:22.305Z,4.50
2022-10-17T22:16:07.227Z,7.50
2022-10-17T22:19:49.112Z,6.20
2022-10-17T22:23:31.264Z,4.43
2022-10-17T22:27:13.263Z,3.33
2022-10-17T22:30:55.726Z,2.47
2022-10-17T22:34:37.584Z,2.10
2022-10-17T22:38:20.430Z,2.57
2022-10-17T22:42:02.311Z,2.47
2022-10-17T22:45:51.103Z,3.03
2022-10-17T22:49:33.756Z,2.97
2022-10-17T22:53:23.808Z,2.43
2022-10-17T22:57:05.864Z,2.37
2022-10-17T23:00:48.873Z,2.40
2022-10-17T23:04:30.744Z,2.50
2022-10-17T23:08:13.868Z,3.20
2022-10-17T23:11:55.771Z,2.40
2022-10-17T23:15:37.931Z,2.17
2022-10-17T23:19:19.827Z,2.43
2022-10-17T23:23:01.753Z,2.17
2022-10-17T23:26:43.801Z,2.20
2022-10-17T23:30:25.944Z,1.80
2022-10-17T23:34:07.880Z,2.20
2022-10-17T23:37:49.734Z,2.33
2022-10-17T23:41:32.397Z,2.10
2022-10-17T23:45:14.212Z,2.13
2022-10-17T23:48:56.385Z,2.13
2022-10-17T23:52:38.483Z,2.13
2022-10-17T23:56:20.336Z,2.00
